LiveATC.Net - Listen to live air traffic control over the Internet!


ICAO: KENW  IATA: ENW   Airport: Kenosha Regional Airport
City: Kenosha   State/Province: Wisconsin
Country: United States   Continent: North America
KENW METAR Weather: KENW 170053Z 24007KT 10SM CLR 09/03 A3000 RMK AO2 SLP162 T00890028
KENW Flight Activity (FlightAware)
KENW Airport Info   (AirNav) (iFlightPlanner)
KENW VFR Sectional Chart   (iFlightPlanner) 
KENW IFR Low Chart   (iFlightPlanner) 

KENW Ground/Tower
Feed Status: UP   Listeners: 1
Listen right in your browser - requires Flash (in browser, requires Flash)
Click here to listen with your own player (launches your MP3 player)
KENW Ground/Tower Audio Archives
FacilityFrequency
Kenosha Ground121.875
Kenosha Tower118.600

NOTICE

Unauthorized use prohibited. See LiveATC.net Terms of Service


Find LiveATC Audio Streams


Airport/ARTCC Code

Frequency Search
(e.g., 124.400, 128.75)
Site-wide search
 


Browse LiveATC Feeds
Top 50 LiveATC Feeds
Bad Weather Areas

LiveATC FAQ
Offer a LiveATC Feed
Contact LiveATC.net
Press Inquiries

LiveATC on iPhone
LiveATC on Android

Windows Phone
Windows 8/10

LiveATC Mobile
(Mobile browser)

ATC Audio Archives
Interesting Recordings

LiveATC Forums


Home Page
About LiveATC.net
Make a Donation
Terms of Use
Privacy Policy

Canadian Air Freqs

AIRMETs/SIGMETs

FAA Airport Status
Nat'l Airspace Status
Arrival Demand Charts


Server Software By:
Icecast.org
Liquidsoap